sensor_id;sensor_type;location;lat;lon;timestamp;pressure;altitude;pressure_sealevel;temperature;humidity
70407;BME280;57821;52.202;0.154;2024-03-06T00:00:53;101840.25;;;7.65;93.64
70407;BME280;57821;52.202;0.154;2024-03-06T00:03:20;101838.50;;;7.64;93.75
70407;BME280;57821;52.202;0.154;2024-03-06T00:05:47;101833.31;;;7.64;93.92
70407;BME280;57821;52.202;0.154;2024-03-06T00:08:14;101841.94;;;7.64;93.45
70407;BME280;57821;52.202;0.154;2024-03-06T00:10:41;101844.53;;;7.64;93.62
70407;BME280;57821;52.202;0.154;2024-03-06T00:13:08;101844.50;;;7.63;93.89
70407;BME280;57821;52.202;0.154;2024-03-06T00:15:34;101853.09;;;7.63;93.92
70407;BME280;57821;52.202;0.154;2024-03-06T00:18:01;101853.97;;;7.64;93.92
70407;BME280;57821;52.202;0.154;2024-03-06T00:20:29;101857.41;;;7.63;93.66
70407;BME280;57821;52.202;0.154;2024-03-06T00:22:56;101854.84;;;7.63;93.69
70407;BME280;57821;52.202;0.154;2024-03-06T00:25:23;101862.59;;;7.63;93.95
70407;BME280;57821;52.202;0.154;2024-03-06T00:27:49;101859.13;;;7.64;94.46
70407;BME280;57821;52.202;0.154;2024-03-06T00:30:16;101847.75;;;7.56;94.41
70407;BME280;57821;52.202;0.154;2024-03-06T00:32:43;101863.44;;;7.63;93.74
70407;BME280;57821;52.202;0.154;2024-03-06T00:35:10;101866.88;;;7.62;94.33
70407;BME280;57821;52.202;0.154;2024-03-06T00:37:38;101870.38;;;7.66;93.89
70407;BME280;57821;52.202;0.154;2024-03-06T00:40:06;101873.84;;;7.66;94.40
70407;BME280;57821;52.202;0.154;2024-03-06T00:42:33;101872.19;;;7.68;94.38
70407;BME280;57821;52.202;0.154;2024-03-06T00:44:59;101874.78;;;7.70;94.48
70407;BME280;57821;52.202;0.154;2024-03-06T00:47:26;101873.91;;;7.69;94.18
70407;BME280;57821;52.202;0.154;2024-03-06T00:49:53;101873.13;;;7.72;94.31
70407;BME280;57821;52.202;0.154;2024-03-06T00:52:20;101875.75;;;7.73;94.29
70407;BME280;57821;52.202;0.154;2024-03-06T00:54:47;101880.94;;;7.75;94.56
70407;BME280;57821;52.202;0.154;2024-03-06T00:57:13;101870.56;;;7.72;94.11
70407;BME280;57821;52.202;0.154;2024-03-06T00:59:40;101878.44;;;7.78;94.41
70407;BME280;57821;52.202;0.154;2024-03-06T01:02:07;101881.06;;;7.79;94.77
70407;BME280;57821;52.202;0.154;2024-03-06T01:04:33;101873.19;;;7.75;94.67
70407;BME280;57821;52.202;0.154;2024-03-06T01:07:00;101872.47;;;7.79;94.40
70407;BME280;57821;52.202;0.154;2024-03-06T01:09:27;101880.25;;;7.82;94.09
70407;BME280;57821;52.202;0.154;2024-03-06T01:11:53;101878.59;;;7.84;94.41
70407;BME280;57821;52.202;0.154;2024-03-06T01:14:22;101876.78;;;7.80;94.52
70407;BME280;57821;52.202;0.154;2024-03-06T01:16:48;101888.94;;;7.84;94.15
70407;BME280;57821;52.202;0.154;2024-03-06T01:19:15;101889.75;;;7.83;94.50
70407;BME280;57821;52.202;0.154;2024-03-06T01:21:42;101892.44;;;7.86;94.11
70407;BME280;57821;52.202;0.154;2024-03-06T01:24:08;101892.44;;;7.86;94.41
70407;BME280;57821;52.202;0.154;2024-03-06T01:26:35;101891.63;;;7.89;94.38
70407;BME280;57821;52.202;0.154;2024-03-06T01:29:02;101888.09;;;7.85;94.30
70407;BME280;57821;52.202;0.154;2024-03-06T01:31:29;101885.53;;;7.87;94.13
70407;BME280;57821;52.202;0.154;2024-03-06T01:33:55;101900.31;;;7.92;93.83
70407;BME280;57821;52.202;0.154;2024-03-06T01:36:22;101902.06;;;7.93;94.16
70407;BME280;57821;52.202;0.154;2024-03-06T01:38:48;101899.47;;;7.93;94.09
70407;BME280;57821;52.202;0.154;2024-03-06T01:41:15;101895.16;;;7.92;94.33
70407;BME280;57821;52.202;0.154;2024-03-06T01:43:42;101907.28;;;7.95;94.07
70407;BME280;57821;52.202;0.154;2024-03-06T01:46:09;101901.22;;;7.94;94.17
70407;BME280;57821;52.202;0.154;2024-03-06T01:48:35;101903.00;;;7.95;94.08
70407;BME280;57821;52.202;0.154;2024-03-06T01:51:03;101900.34;;;7.94;94.07
70407;BME280;57821;52.202;0.154;2024-03-06T01:53:32;101909.91;;;7.96;94.53
70407;BME280;57821;52.202;0.154;2024-03-06T01:56:00;101908.16;;;7.95;94.65
70407;BME280;57821;52.202;0.154;2024-03-06T01:58:28;101900.47;;;7.98;94.45
70407;BME280;57821;52.202;0.154;2024-03-06T02:00:54;101904.81;;;7.99;94.20
70407;BME280;57821;52.202;0.154;2024-03-06T02:03:22;101900.50;;;8.00;94.65
70407;BME280;57821;52.202;0.154;2024-03-06T02:05:50;101907.44;;;8.01;94.82
70407;BME280;57821;52.202;0.154;2024-03-06T02:08:17;101900.47;;;7.98;94.52
70407;BME280;57821;52.202;0.154;2024-03-06T02:10:44;101909.19;;;8.02;94.28
70407;BME280;57821;52.202;0.154;2024-03-06T02:13:12;101900.47;;;7.98;94.51
70407;BME280;57821;52.202;0.154;2024-03-06T02:15:40;101908.31;;;8.01;94.34
70407;BME280;57821;52.202;0.154;2024-03-06T02:18:07;101912.66;;;8.04;94.68
70407;BME280;57821;52.202;0.154;2024-03-06T02:20:38;101911.81;;;8.03;94.48
70407;BME280;57821;52.202;0.154;2024-03-06T02:23:06;101916.13;;;8.04;94.81
70407;BME280;57821;52.202;0.154;2024-03-06T02:25:34;101915.28;;;8.05;94.63
70407;BME280;57821;52.202;0.154;2024-03-06T02:28:01;101916.16;;;8.06;94.68
70407;BME280;57821;52.202;0.154;2024-03-06T02:30:27;101910.13;;;8.05;94.41
70407;BME280;57821;52.202;0.154;2024-03-06T02:32:57;101911.81;;;8.05;94.42
70407;BME280;57821;52.202;0.154;2024-03-06T02:35:23;101911.03;;;8.07;94.74
70407;BME280;57821;52.202;0.154;2024-03-06T02:37:50;101910.16;;;8.07;94.42
70407;BME280;57821;52.202;0.154;2024-03-06T02:40:17;101911.88;;;8.06;94.41
70407;BME280;57821;52.202;0.154;2024-03-06T02:42:43;101888.31;;;7.94;94.46
70407;BME280;57821;52.202;0.154;2024-03-06T02:45:10;101906.72;;;8.06;94.50
70407;BME280;57821;52.202;0.154;2024-03-06T02:47:37;101905.84;;;8.06;94.54
70407;BME280;57821;52.202;0.154;2024-03-06T02:50:04;101901.53;;;8.06;94.78
70407;BME280;57821;52.202;0.154;2024-03-06T02:52:31;101898.97;;;8.06;94.81
70407;BME280;57821;52.202;0.154;2024-03-06T02:54:58;101899.78;;;8.05;95.07
70407;BME280;57821;52.202;0.154;2024-03-06T02:57:27;101893.72;;;8.03;94.91
70407;BME280;57821;52.202;0.154;2024-03-06T02:59:58;101888.44;;;7.99;94.91
70407;BME280;57821;52.202;0.154;2024-03-06T03:02:25;101891.94;;;8.01;94.90
70407;BME280;57821;52.202;0.154;2024-03-06T03:04:52;101893.69;;;8.02;94.97
70407;BME280;57821;52.202;0.154;2024-03-06T03:07:19;101898.84;;;8.02;95.01
70407;BME280;57821;52.202;0.154;2024-03-06T03:09:46;101896.28;;;8.02;94.50
70407;BME280;57821;52.202;0.154;2024-03-06T03:12:13;101891.09;;;8.02;94.88
70407;BME280;57821;52.202;0.154;2024-03-06T03:14:40;101893.72;;;8.03;95.13
70407;BME280;57821;52.202;0.154;2024-03-06T03:17:07;101905.78;;;8.04;95.05
70407;BME280;57821;52.202;0.154;2024-03-06T03:19:34;101896.31;;;8.03;94.82
70407;BME280;57821;52.202;0.154;2024-03-06T03:22:01;101894.63;;;8.05;95.15
70407;BME280;57821;52.202;0.154;2024-03-06T03:24:30;101892.09;;;8.07;95.25
70407;BME280;57821;52.202;0.154;2024-03-06T03:26:57;101892.97;;;8.07;95.09
70407;BME280;57821;52.202;0.154;2024-03-06T03:29:24;101892.97;;;8.07;95.20
70407;BME280;57821;52.202;0.154;2024-03-06T03:31:50;101887.78;;;8.07;95.16
70407;BME280;57821;52.202;0.154;2024-03-06T03:34:17;101885.09;;;8.03;95.27
70407;BME280;57821;52.202;0.154;2024-03-06T03:36:44;101885.97;;;8.03;95.78
70407;BME280;57821;52.202;0.154;2024-03-06T03:39:11;101891.25;;;8.08;95.45
70407;BME280;57821;52.202;0.154;2024-03-06T03:41:48;101889.50;;;8.07;95.79
70407;BME280;57821;52.202;0.154;2024-03-06T03:44:16;101896.41;;;8.08;95.58
70407;BME280;57821;52.202;0.154;2024-03-06T03:46:43;101892.16;;;8.10;95.49
70407;BME280;57821;52.202;0.154;2024-03-06T03:49:10;101892.16;;;8.10;95.55
70407;BME280;57821;52.202;0.154;2024-03-06T03:51:38;101885.22;;;8.07;95.70
70407;BME280;57821;52.202;0.154;2024-03-06T03:54:05;101889.59;;;8.11;95.11
70407;BME280;57821;52.202;0.154;2024-03-06T03:56:32;101889.59;;;8.11;95.44
70407;BME280;57821;52.202;0.154;2024-03-06T03:58:59;101891.31;;;8.11;95.65
70407;BME280;57821;52.202;0.154;2024-03-06T04:01:26;101890.47;;;8.12;94.93
70407;BME280;57821;52.202;0.154;2024-03-06T04:03:53;101893.91;;;8.11;95.49
70407;BME280;57821;52.202;0.154;2024-03-06T04:06:20;101897.41;;;8.13;95.23
70407;BME280;57821;52.202;0.154;2024-03-06T04:08:46;101901.69;;;8.12;95.32
70407;BME280;57821;52.202;0.154;2024-03-06T04:11:13;101900.88;;;8.13;95.33
70407;BME280;57821;52.202;0.154;2024-03-06T04:13:40;101900.91;;;8.15;95.80
70407;BME280;57821;52.202;0.154;2024-03-06T04:16:06;101905.19;;;8.14;95.24
70407;BME280;57821;52.202;0.154;2024-03-06T04:18:34;101904.31;;;8.14;95.03
70407;BME280;57821;52.202;0.154;2024-03-06T04:21:07;101906.03;;;8.13;95.49
70407;BME280;57821;52.202;0.154;2024-03-06T04:23:33;101910.38;;;8.14;95.29
70407;BME280;57821;52.202;0.154;2024-03-06T04:26:00;101907.78;;;8.14;95.34
70407;BME280;57821;52.202;0.154;2024-03-06T04:28:28;101903.34;;;8.10;95.82
70407;BME280;57821;52.202;0.154;2024-03-06T04:30:55;101906.06;;;8.15;95.29
70407;BME280;57821;52.202;0.154;2024-03-06T04:33:21;101907.72;;;8.13;94.92
70407;BME280;57821;52.202;0.154;2024-03-06T04:35:48;101906.06;;;8.15;95.33
70407;BME280;57821;52.202;0.154;2024-03-06T04:38:15;101914.66;;;8.15;95.45
70407;BME280;57821;52.202;0.154;2024-03-06T04:40:42;101918.13;;;8.16;95.09
70407;BME280;57821;52.202;0.154;2024-03-06T04:43:09;101916.44;;;8.16;95.26
70407;BME280;57821;52.202;0.154;2024-03-06T04:45:35;101926.75;;;8.16;95.49
70407;BME280;57821;52.202;0.154;2024-03-06T04:48:02;101912.03;;;8.12;95.02
70407;BME280;57821;52.202;0.154;2024-03-06T04:50:29;101921.53;;;8.13;95.37
70407;BME280;57821;52.202;0.154;2024-03-06T04:52:56;101928.50;;;8.17;95.02
70407;BME280;57821;52.202;0.154;2024-03-06T04:55:23;101940.59;;;8.18;95.64
70407;BME280;57821;52.202;0.154;2024-03-06T04:57:52;101933.69;;;8.17;95.46
70407;BME280;57821;52.202;0.154;2024-03-06T05:00:22;101934.50;;;8.15;95.10
70407;BME280;57821;52.202;0.154;2024-03-06T05:02:49;101936.31;;;8.19;94.93
70407;BME280;57821;52.202;0.154;2024-03-06T05:05:34;101931.03;;;8.16;95.23
70407;BME280;57821;52.202;0.154;2024-03-06T05:08:18;101939.66;;;8.16;95.07
70407;BME280;57821;52.202;0.154;2024-03-06T05:11:03;101939.66;;;8.16;94.90
70407;BME280;57821;52.202;0.154;2024-03-06T05:13:47;101931.94;;;8.16;95.16
70407;BME280;57821;52.202;0.154;2024-03-06T05:16:32;101933.47;;;8.10;95.37
70407;BME280;57821;52.202;0.154;2024-03-06T05:19:16;101945.72;;;8.17;95.61
70407;BME280;57821;52.202;0.154;2024-03-06T05:22:01;101937.91;;;8.14;94.90
70407;BME280;57821;52.202;0.154;2024-03-06T05:24:45;101955.19;;;8.16;95.08
70407;BME280;57821;52.202;0.154;2024-03-06T05:27:29;101934.19;;;8.04;95.21
70407;BME280;57821;52.202;0.154;2024-03-06T05:30:14;101951.59;;;8.11;95.42
70407;BME280;57821;52.202;0.154;2024-03-06T05:32:58;101956.88;;;8.14;95.41
70407;BME280;57821;52.202;0.154;2024-03-06T05:35:43;101956.88;;;8.14;94.96
70407;BME280;57821;52.202;0.154;2024-03-06T05:38:27;101961.16;;;8.14;95.64
70407;BME280;57821;52.202;0.154;2024-03-06T05:41:12;101972.38;;;8.14;95.24
70407;BME280;57821;52.202;0.154;2024-03-06T05:43:56;101966.31;;;8.14;95.42
70407;BME280;57821;52.202;0.154;2024-03-06T05:46:41;101960.28;;;8.13;95.35
70407;BME280;57821;52.202;0.154;2024-03-06T05:49:25;101970.63;;;8.13;95.26
70407;BME280;57821;52.202;0.154;2024-03-06T05:52:10;101969.75;;;8.13;95.59
70407;BME280;57821;52.202;0.154;2024-03-06T05:54:54;101974.03;;;8.12;95.48
70407;BME280;57821;52.202;0.154;2024-03-06T05:57:39;101976.59;;;8.12;95.22
70407;BME280;57821;52.202;0.154;2024-03-06T06:00:29;101975.72;;;8.12;95.15
70407;BME280;57821;52.202;0.154;2024-03-06T06:02:55;101974.03;;;8.12;95.25
70407;BME280;57821;52.202;0.154;2024-03-06T06:05:22;101974.84;;;8.11;95.39
70407;BME280;57821;52.202;0.154;2024-03-06T06:07:50;101979.19;;;8.12;95.42
70407;BME280;57821;52.202;0.154;2024-03-06T06:10:18;101981.78;;;8.12;94.96
70407;BME280;57821;52.202;0.154;2024-03-06T06:12:48;101978.31;;;8.12;94.99
70407;BME280;57821;52.202;0.154;2024-03-06T06:15:15;101983.47;;;8.12;95.18
70407;BME280;57821;52.202;0.154;2024-03-06T06:17:42;101983.53;;;8.13;95.53
70407;BME280;57821;52.202;0.154;2024-03-06T06:20:12;101973.00;;;8.06;95.55
70407;BME280;57821;52.202;0.154;2024-03-06T06:22:44;101986.16;;;8.15;95.15
70407;BME280;57821;52.202;0.154;2024-03-06T06:25:10;101984.41;;;8.15;95.07
70407;BME280;57821;52.202;0.154;2024-03-06T06:27:38;101978.25;;;8.10;95.28
70407;BME280;57821;52.202;0.154;2024-03-06T06:30:06;101999.03;;;8.13;95.50
70407;BME280;57821;52.202;0.154;2024-03-06T06:32:35;101998.19;;;8.14;95.21
70407;BME280;57821;52.202;0.154;2024-03-06T06:35:04;101993.81;;;8.12;95.44
70407;BME280;57821;52.202;0.154;2024-03-06T06:37:31;101994.69;;;8.12;95.80
70407;BME280;57821;52.202;0.154;2024-03-06T06:39:58;102003.38;;;8.14;95.24
70407;BME280;57821;52.202;0.154;2024-03-06T06:42:26;102009.41;;;8.15;95.75
70407;BME280;57821;52.202;0.154;2024-03-06T06:44:52;101999.84;;;8.12;95.38
70407;BME280;57821;52.202;0.154;2024-03-06T06:47:19;102002.50;;;8.15;95.51
70407;BME280;57821;52.202;0.154;2024-03-06T06:49:46;101998.19;;;8.14;95.56
70407;BME280;57821;52.202;0.154;2024-03-06T06:52:14;102001.63;;;8.13;95.72
70407;BME280;57821;52.202;0.154;2024-03-06T06:54:41;101996.34;;;8.10;95.76
70407;BME280;57821;52.202;0.154;2024-03-06T06:57:08;102008.59;;;8.17;95.79
70407;BME280;57821;52.202;0.154;2024-03-06T06:59:35;102010.34;;;8.18;95.39
70407;BME280;57821;52.202;0.154;2024-03-06T07:02:02;102018.16;;;8.21;95.18
70407;BME280;57821;52.202;0.154;2024-03-06T07:04:29;102012.16;;;8.21;95.27
70407;BME280;57821;52.202;0.154;2024-03-06T07:06:55;102015.59;;;8.21;95.35
70407;BME280;57821;52.202;0.154;2024-03-06T07:09:22;102014.75;;;8.21;95.29
70407;BME280;57821;52.202;0.154;2024-03-06T07:11:49;102025.09;;;8.22;95.74
70407;BME280;57821;52.202;0.154;2024-03-06T07:14:16;102020.75;;;8.20;95.38
70407;BME280;57821;52.202;0.154;2024-03-06T07:16:43;102023.38;;;8.23;95.71
70407;BME280;57821;52.202;0.154;2024-03-06T07:19:11;102030.31;;;8.24;95.43
70407;BME280;57821;52.202;0.154;2024-03-06T07:21:38;102032.94;;;8.25;95.74
70407;BME280;57821;52.202;0.154;2024-03-06T07:24:05;102032.94;;;8.25;95.32
70407;BME280;57821;52.202;0.154;2024-03-06T07:26:32;102031.25;;;8.27;95.78
70407;BME280;57821;52.202;0.154;2024-03-06T07:29:00;102038.31;;;8.32;95.22
70407;BME280;57821;52.202;0.154;2024-03-06T07:31:27;102045.22;;;8.33;95.49
70407;BME280;57821;52.202;0.154;2024-03-06T07:33:53;102043.53;;;8.35;95.84
70407;BME280;57821;52.202;0.154;2024-03-06T07:36:20;102047.03;;;8.37;95.60
70407;BME280;57821;52.202;0.154;2024-03-06T07:38:47;102049.69;;;8.38;95.29
70407;BME280;57821;52.202;0.154;2024-03-06T07:41:14;102052.28;;;8.40;94.93
70407;BME280;57821;52.202;0.154;2024-03-06T07:43:40;102051.34;;;8.36;94.53
70407;BME280;57821;52.202;0.154;2024-03-06T07:46:07;102051.38;;;8.38;95.25
70407;BME280;57821;52.202;0.154;2024-03-06T07:48:37;102046.16;;;8.36;94.85
70407;BME280;57821;52.202;0.154;2024-03-06T07:51:05;102057.38;;;8.37;94.98
70407;BME280;57821;52.202;0.154;2024-03-06T07:53:31;102063.50;;;8.40;94.92
70407;BME280;57821;52.202;0.154;2024-03-06T07:55:58;102063.50;;;8.40;95.09
70407;BME280;57821;52.202;0.154;2024-03-06T07:58:25;102062.72;;;8.43;95.06
70407;BME280;57821;52.202;0.154;2024-03-06T08:00:52;102063.59;;;8.43;94.71
70407;BME280;57821;52.202;0.154;2024-03-06T08:03:23;102071.34;;;8.45;94.76
70407;BME280;57821;52.202;0.154;2024-03-06T08:05:51;102074.88;;;8.47;94.84
70407;BME280;57821;52.202;0.154;2024-03-06T08:08:21;102075.78;;;8.49;95.05
70407;BME280;57821;52.202;0.154;2024-03-06T08:10:49;102078.38;;;8.50;94.66
70407;BME280;57821;52.202;0.154;2024-03-06T08:13:16;102083.59;;;8.52;94.84
70407;BME280;57821;52.202;0.154;2024-03-06T08:15:44;102083.66;;;8.53;94.78
70407;BME280;57821;52.202;0.154;2024-03-06T08:18:12;102081.13;;;8.55;94.40
70407;BME280;57821;52.202;0.154;2024-03-06T08:20:40;102086.28;;;8.55;94.51
70407;BME280;57821;52.202;0.154;2024-03-06T08:23:08;102088.06;;;8.57;94.54
70407;BME280;57821;52.202;0.154;2024-03-06T08:25:36;102089.81;;;8.58;94.68
70407;BME280;57821;52.202;0.154;2024-03-06T08:28:04;102093.38;;;8.63;94.55
70407;BME280;57821;52.202;0.154;2024-03-06T08:30:32;102095.19;;;8.66;94.86
70407;BME280;57821;52.202;0.154;2024-03-06T08:32:59;102090.91;;;8.68;94.23
70407;BME280;57821;52.202;0.154;2024-03-06T08:35:26;102094.41;;;8.70;94.02
70407;BME280;57821;52.202;0.154;2024-03-06T08:37:53;102100.47;;;8.71;93.86
70407;BME280;57821;52.202;0.154;2024-03-06T08:40:20;102103.09;;;8.72;94.17
70407;BME280;57821;52.202;0.154;2024-03-06T08:42:47;102104.91;;;8.76;94.10
70407;BME280;57821;52.202;0.154;2024-03-06T08:45:16;102113.59;;;8.78;94.24
70407;BME280;57821;52.202;0.154;2024-03-06T08:47:44;102116.25;;;8.81;94.29
70407;BME280;57821;52.202;0.154;2024-03-06T08:50:12;102117.16;;;8.83;94.13
70407;BME280;57821;52.202;0.154;2024-03-06T08:52:39;102112.06;;;8.86;94.16
70407;BME280;57821;52.202;0.154;2024-03-06T08:55:06;102117.31;;;8.89;94.36
70407;BME280;57821;52.202;0.154;2024-03-06T08:57:34;102114.78;;;8.92;93.74
70407;BME280;57821;52.202;0.154;2024-03-06T09:00:01;102112.16;;;8.89;93.95
70407;BME280;57821;52.202;0.154;2024-03-06T09:02:30;102122.81;;;9.01;93.62
70407;BME280;57821;52.202;0.154;2024-03-06T09:04:57;102128.88;;;9.03;93.39
70407;BME280;57821;52.202;0.154;2024-03-06T09:07:23;102132.44;;;9.08;93.56
70407;BME280;57821;52.202;0.154;2024-03-06T09:09:51;102132.53;;;9.12;93.60
70407;BME280;57821;52.202;0.154;2024-03-06T09:12:20;102138.69;;;9.17;93.43
70407;BME280;57821;52.202;0.154;2024-03-06T09:14:47;102138.69;;;9.17;92.42
70407;BME280;57821;52.202;0.154;2024-03-06T09:17:13;102140.50;;;9.21;92.37
70407;BME280;57821;52.202;0.154;2024-03-06T09:19:41;102137.91;;;9.19;92.49
70407;BME280;57821;52.202;0.154;2024-03-06T09:22:28;102147.56;;;9.28;92.08
70407;BME280;57821;52.202;0.154;2024-03-06T09:24:55;102148.53;;;9.31;92.17
70407;BME280;57821;52.202;0.154;2024-03-06T09:27:23;102157.19;;;9.33;92.57
70407;BME280;57821;52.202;0.154;2024-03-06T09:29:49;102154.72;;;9.38;92.61
70407;BME280;57821;52.202;0.154;2024-03-06T09:32:16;102165.28;;;9.47;92.34
70407;BME280;57821;52.202;0.154;2024-03-06T09:34:45;102164.47;;;9.49;92.13
70407;BME280;57821;52.202;0.154;2024-03-06T09:37:12;102170.63;;;9.53;91.70
70407;BME280;57821;52.202;0.154;2024-03-06T09:39:39;102167.09;;;9.51;91.69
70407;BME280;57821;52.202;0.154;2024-03-06T09:42:05;102164.59;;;9.54;92.04
70407;BME280;57821;52.202;0.154;2024-03-06T09:44:33;102168.25;;;9.64;91.29
70407;BME280;57821;52.202;0.154;2024-03-06T09:47:02;102172.66;;;9.66;91.02
70407;BME280;57821;52.202;0.154;2024-03-06T09:49:34;102177.00;;;9.69;91.06
70407;BME280;57821;52.202;0.154;2024-03-06T09:52:01;102177.09;;;9.73;91.26
70407;BME280;57821;52.202;0.154;2024-03-06T09:54:30;102178.94;;;9.79;89.97
70407;BME280;57821;52.202;0.154;2024-03-06T09:56:57;102169.31;;;9.73;89.98
70407;BME280;57821;52.202;0.154;2024-03-06T09:59:25;102184.16;;;9.80;89.97
70407;BME280;57821;52.202;0.154;2024-03-06T10:01:57;102157.16;;;9.69;90.52
70407;BME280;57821;52.202;0.154;2024-03-06T10:04:26;102187.03;;;9.93;90.02
70407;BME280;57821;52.202;0.154;2024-03-06T10:06:54;102185.44;;;9.99;89.87
70407;BME280;57821;52.202;0.154;2024-03-06T10:09:21;102187.22;;;10.02;88.95
70407;BME280;57821;52.202;0.154;2024-03-06T10:11:48;102190.84;;;10.10;89.62
70407;BME280;57821;52.202;0.154;2024-03-06T10:14:15;102184.88;;;10.12;89.32
70407;BME280;57821;52.202;0.154;2024-03-06T10:19:19;102185.28;;;10.32;89.36
70407;BME280;57821;52.202;0.154;2024-03-06T10:21:49;102188.94;;;10.40;87.78
70407;BME280;57821;52.202;0.154;2024-03-06T10:24:27;102192.41;;;10.41;87.54
70407;BME280;57821;52.202;0.154;2024-03-06T10:26:55;102198.50;;;10.44;87.76
70407;BME280;57821;52.202;0.154;2024-03-06T10:29:26;102184.78;;;10.48;87.28
70407;BME280;57821;52.202;0.154;2024-03-06T10:31:55;102202.19;;;10.55;88.62
70407;BME280;57821;52.202;0.154;2024-03-06T10:34:27;102171.00;;;10.52;87.39
70407;BME280;57821;52.202;0.154;2024-03-06T10:37:12;102187.88;;;10.76;88.27
70407;BME280;57821;52.202;0.154;2024-03-06T10:39:42;102189.81;;;10.87;86.50
70407;BME280;57821;52.202;0.154;2024-03-06T10:42:12;102168.06;;;10.81;86.33
70407;BME280;57821;52.202;0.154;2024-03-06T10:44:51;102170.81;;;10.90;85.59
70407;BME280;57821;52.202;0.154;2024-03-06T10:47:19;102190.25;;;11.13;84.58
70407;BME280;57821;52.202;0.154;2024-03-06T10:49:46;102198.13;;;11.19;84.36
70407;BME280;57821;52.202;0.154;2024-03-06T10:52:14;102193.00;;;11.22;83.88
70407;BME280;57821;52.202;0.154;2024-03-06T10:54:44;102192.16;;;11.25;83.90
70407;BME280;57821;52.202;0.154;2024-03-06T10:57:14;102175.66;;;11.18;83.40
70407;BME280;57821;52.202;0.154;2024-03-06T10:59:42;102204.50;;;11.38;82.62
70407;BME280;57821;52.202;0.154;2024-03-06T11:02:09;102208.06;;;11.43;82.64
70407;BME280;57821;52.202;0.154;2024-03-06T11:04:39;102209.94;;;11.51;83.03
70407;BME280;57821;52.202;0.154;2024-03-06T11:07:08;102207.38;;;11.54;81.46
70407;BME280;57821;52.202;0.154;2024-03-06T11:09:39;102210.91;;;11.58;80.74
70407;BME280;57821;52.202;0.154;2024-03-06T11:12:06;102206.56;;;11.57;79.98
70407;BME280;57821;52.202;0.154;2024-03-06T11:14:37;102218.69;;;11.60;81.26
70407;BME280;57821;52.202;0.154;2024-03-06T11:17:08;102190.88;;;11.51;80.74
70407;BME280;57821;52.202;0.154;2024-03-06T11:28:29;102222.81;;;12.00;81.48
70407;BME280;57821;52.202;0.154;2024-03-06T11:31:01;102221.25;;;12.14;80.50
70407;BME280;57821;52.202;0.154;2024-03-06T11:33:42;102218.84;;;12.27;79.93
70407;BME280;57821;52.202;0.154;2024-03-06T11:38:47;102219.13;;;12.52;79.68
70407;BME280;57821;52.202;0.154;2024-03-06T11:41:14;102223.63;;;12.66;79.47
70407;BME280;57821;52.202;0.154;2024-03-06T11:43:42;102227.13;;;12.70;77.25
70407;BME280;57821;52.202;0.154;2024-03-06T11:46:10;102220.19;;;12.69;75.71
70407;BME280;57821;52.202;0.154;2024-03-06T11:48:37;102227.09;;;12.67;74.57
70407;BME280;57821;52.202;0.154;2024-03-06T11:51:05;102236.59;;;12.62;74.38
70407;BME280;57821;52.202;0.154;2024-03-06T11:53:35;102233.06;;;12.57;75.25
70407;BME280;57821;52.202;0.154;2024-03-06T11:56:06;102234.81;;;12.58;75.46
70407;BME280;57821;52.202;0.154;2024-03-06T11:58:36;102233.06;;;12.57;74.00
70407;BME280;57821;52.202;0.154;2024-03-06T12:01:04;102238.22;;;12.54;72.98
70407;BME280;57821;52.202;0.154;2024-03-06T12:03:31;102227.72;;;12.45;73.14
70407;BME280;57821;52.202;0.154;2024-03-06T12:05:58;102229.31;;;12.35;73.99
70407;BME280;57821;52.202;0.154;2024-03-06T12:08:26;102232.72;;;12.29;73.04
70407;BME280;57821;52.202;0.154;2024-03-06T12:10:53;102226.50;;;12.18;74.05
70407;BME280;57821;52.202;0.154;2024-03-06T12:13:22;102238.63;;;12.18;73.66
70407;BME280;57821;52.202;0.154;2024-03-06T12:15:49;102208.88;;;11.96;72.93
70407;BME280;57821;52.202;0.154;2024-03-06T12:18:19;102232.31;;;11.99;73.11
70407;BME280;57821;52.202;0.154;2024-03-06T12:20:45;102231.34;;;11.94;74.01
70407;BME280;57821;52.202;0.154;2024-03-06T12:23:22;102224.28;;;11.84;73.14
70407;BME280;57821;52.202;0.154;2024-03-06T12:26:08;102228.59;;;11.80;73.66
70407;BME280;57821;52.202;0.154;2024-03-06T12:28:37;102224.22;;;11.76;73.31
70407;BME280;57821;52.202;0.154;2024-03-06T12:31:05;102222.31;;;11.71;73.88
70407;BME280;57821;52.202;0.154;2024-03-06T12:33:34;102223.09;;;11.64;73.53
70407;BME280;57821;52.202;0.154;2024-03-06T12:36:05;102216.09;;;11.60;74.16
70407;BME280;57821;52.202;0.154;2024-03-06T12:38:33;102223.03;;;11.61;74.43
70407;BME280;57821;52.202;0.154;2024-03-06T12:41:00;102221.34;;;11.63;74.30
70407;BME280;57821;52.202;0.154;2024-03-06T12:43:27;102223.97;;;11.66;74.24
70407;BME280;57821;52.202;0.154;2024-03-06T12:45:55;102216.25;;;11.69;73.99
70407;BME280;57821;52.202;0.154;2024-03-06T12:48:24;102218.03;;;11.73;74.12
70407;BME280;57821;52.202;0.154;2024-03-06T12:50:52;102222.47;;;11.78;74.05
70407;BME280;57821;52.202;0.154;2024-03-06T12:53:21;102205.13;;;11.76;73.21
70407;BME280;57821;52.202;0.154;2024-03-06T12:55:48;102206.94;;;11.81;73.15
70407;BME280;57821;52.202;0.154;2024-03-06T12:58:15;102214.84;;;11.87;72.73
70407;BME280;57821;52.202;0.154;2024-03-06T13:00:42;102206.19;;;11.90;72.59
70407;BME280;57821;52.202;0.154;2024-03-06T13:03:12;102203.66;;;11.94;73.16
70407;BME280;57821;52.202;0.154;2024-03-06T13:05:38;102206.34;;;12.02;72.92
70407;BME280;57821;52.202;0.154;2024-03-06T13:08:05;102200.31;;;12.03;72.71
70407;BME280;57821;52.202;0.154;2024-03-06T13:10:32;102200.34;;;12.06;72.70
70407;BME280;57821;52.202;0.154;2024-03-06T13:12:59;102199.50;;;12.07;72.41
70407;BME280;57821;52.202;0.154;2024-03-06T13:15:25;102204.81;;;12.16;73.48
70407;BME280;57821;52.202;0.154;2024-03-06T13:17:52;102199.69;;;12.22;72.30
70407;BME280;57821;52.202;0.154;2024-03-06T13:20:19;102204.97;;;12.28;72.98